createdAt,value
2018-06-06T10:04:17.884Z,140
2018-06-06T10:04:49.988Z,140
2018-06-06T10:05:22.184Z,140
2018-06-06T10:05:54.483Z,140
2018-06-06T10:06:26.618Z,140
2018-06-06T10:06:58.731Z,145
2018-06-06T10:07:30.839Z,140
2018-06-06T10:08:03.008Z,145
2018-06-06T10:09:54.698Z,145
2018-06-06T10:10:26.752Z,145
2018-06-06T10:10:58.835Z,145
2018-06-06T10:11:30.922Z,145
2018-06-06T10:12:03.003Z,145
2018-06-06T10:12:35.090Z,145
2018-06-06T10:13:07.220Z,145
2018-06-06T10:13:39.337Z,145
2018-06-06T10:14:11.424Z,145
2018-06-06T10:16:02.824Z,145
2018-06-06T10:16:34.937Z,150
2018-06-06T10:17:07.004Z,150
2018-06-06T10:18:58.824Z,150
2018-06-06T10:19:30.891Z,150
2018-06-06T10:20:02.989Z,150
2018-06-06T10:20:35.075Z,150
2018-06-06T10:21:07.160Z,150
2018-06-06T10:21:39.319Z,150
2018-06-06T10:22:11.410Z,150
2018-06-06T10:24:03.135Z,150
2018-06-06T10:24:35.198Z,155
2018-06-06T10:25:07.299Z,155
2018-06-06T10:25:39.364Z,155
2018-06-06T10:26:11.416Z,155
2018-06-06T10:26:43.510Z,155
2018-06-06T10:27:15.590Z,155
2018-06-06T10:29:07.154Z,160
2018-06-06T10:29:39.465Z,160
2018-06-06T10:30:11.545Z,160
2018-06-06T10:30:43.656Z,155
2018-06-06T10:31:15.759Z,160
2018-06-06T10:31:47.860Z,160
2018-06-06T10:32:19.933Z,160
2018-06-06T10:32:52.017Z,160
2018-06-06T10:34:43.844Z,160
2018-06-06T10:36:35.564Z,115
2018-06-06T10:37:07.616Z,95
2018-06-06T10:37:39.734Z,95
2018-06-06T10:38:11.827Z,105
2018-06-06T10:38:43.934Z,110
2018-06-06T10:40:35.675Z,200
2018-06-06T10:41:07.727Z,200
2018-06-06T10:41:39.804Z,195
2018-06-06T10:43:31.247Z,180
2018-06-06T10:44:03.369Z,180
2018-06-06T10:44:35.495Z,180
2018-06-06T10:45:07.643Z,180
2018-06-06T10:45:39.727Z,180
2018-06-06T10:46:11.813Z,180
2018-06-06T10:46:43.916Z,180
2018-06-06T10:47:16.027Z,180
2018-06-06T10:47:48.130Z,180
2018-06-06T10:48:20.249Z,185
2018-06-06T10:48:52.342Z,185
2018-06-06T10:49:24.439Z,185
2018-06-06T10:49:56.541Z,185
2018-06-06T10:50:28.651Z,185
2018-06-06T10:51:00.736Z,185
2018-06-06T10:51:32.850Z,180
2018-06-06T10:53:24.528Z,185
2018-06-06T10:53:56.621Z,190
2018-06-06T10:54:28.704Z,190
2018-06-06T10:55:00.761Z,190
2018-06-06T10:55:32.838Z,195
2018-06-06T10:56:04.900Z,195
2018-06-06T10:56:36.997Z,200
2018-06-06T10:57:09.106Z,200
2018-06-06T10:59:00.688Z,205
2018-06-06T10:59:32.810Z,210
2018-06-06T11:00:04.886Z,210
2018-06-06T11:00:36.980Z,210
2018-06-06T11:01:09.070Z,210
2018-06-06T11:01:41.149Z,210
2018-06-06T11:02:13.247Z,210
2018-06-06T11:02:45.349Z,205
2018-06-06T11:03:17.413Z,205
2018-06-06T11:03:49.489Z,205
2018-06-06T11:04:21.582Z,205
2018-06-06T11:04:53.666Z,205
2018-06-06T11:05:25.759Z,205
2018-06-06T11:05:57.850Z,205
2018-06-06T11:07:49.674Z,205
2018-06-06T11:09:41.288Z,205
2018-06-06T11:10:13.354Z,205
2018-06-06T11:10:45.462Z,205
2018-06-06T11:11:17.550Z,205
2018-06-06T11:11:49.652Z,210
2018-06-06T11:12:21.736Z,205
2018-06-06T11:12:53.826Z,205
2018-06-06T11:13:25.892Z,125
2018-06-06T11:13:57.988Z,130
2018-06-06T11:14:30.078Z,165
2018-06-06T11:15:02.128Z,120
2018-06-06T11:15:34.224Z,120
2018-06-06T11:16:14.379Z,175
2018-06-06T11:16:46.528Z,185
2018-06-06T11:17:18.528Z,225
2018-06-06T11:17:50.642Z,230
2018-06-06T11:18:22.705Z,230
2018-06-06T11:18:54.805Z,230
2018-06-06T11:20:46.308Z,225
2018-06-06T11:21:18.373Z,215
2018-06-06T11:23:09.871Z,215
2018-06-06T11:23:41.956Z,220
2018-06-06T11:24:14.011Z,215
2018-06-06T11:26:05.697Z,230
2018-06-06T11:26:37.879Z,235
2018-06-06T11:27:09.985Z,240
2018-06-06T11:27:42.074Z,240
2018-06-06T11:28:14.137Z,240
2018-06-06T11:30:05.801Z,235
2018-06-06T11:31:57.324Z,235
2018-06-06T11:32:29.421Z,230
2018-06-06T11:33:01.520Z,235
2018-06-06T11:36:12.293Z,260
2018-06-06T11:36:44.390Z,260
2018-06-06T11:38:35.895Z,260
2018-06-06T11:39:07.981Z,260
2018-06-06T11:39:40.072Z,260
2018-06-06T11:40:12.137Z,260
2018-06-06T11:40:44.263Z,265
2018-06-06T11:41:16.364Z,160
2018-06-06T11:43:07.727Z,135
2018-06-06T11:44:59.123Z,130
2018-06-06T11:45:31.227Z,135
2018-06-06T11:46:03.327Z,140
2018-06-06T11:47:54.900Z,155
2018-06-06T11:48:27.009Z,165
2018-06-06T11:50:18.581Z,305
2018-06-06T11:50:50.678Z,305
2018-06-06T11:51:22.778Z,305
2018-06-06T11:51:54.881Z,305
2018-06-06T11:52:26.981Z,300
2018-06-06T11:52:59.089Z,300
2018-06-06T11:53:31.146Z,295
2018-06-06T11:55:22.685Z,300
2018-06-06T11:57:14.088Z,315
2018-06-06T11:57:46.184Z,325
2018-06-06T11:58:18.272Z,330
2018-06-06T11:58:50.370Z,325
2018-06-06T11:59:22.462Z,325
2018-06-06T11:59:54.553Z,265
2018-06-06T12:01:45.909Z,280
2018-06-06T12:02:17.989Z,335
2018-06-06T12:02:50.094Z,220
2018-06-06T12:03:22.199Z,360
2018-06-06T12:05:13.828Z,370
2018-06-06T12:05:45.935Z,370
2018-06-06T12:06:18.018Z,365
2018-06-06T12:06:50.086Z,355
2018-06-06T12:07:22.161Z,345
2018-06-06T12:10:33.253Z,355
2018-06-06T12:11:05.344Z,355
2018-06-06T12:12:56.927Z,355
2018-06-06T12:13:29.014Z,360
2018-06-06T12:14:06.385Z,365
2018-06-06T12:14:38.438Z,380
2018-06-06T12:15:10.534Z,385
2018-06-06T12:15:42.649Z,400
2018-06-06T12:16:18.379Z,405
2018-06-06T12:16:50.458Z,405
2018-06-06T12:17:22.546Z,410
2018-06-06T12:17:54.637Z,415
2018-06-06T12:19:46.182Z,415
2018-06-06T12:20:18.267Z,415
2018-06-06T12:20:50.346Z,415
2018-06-06T12:21:22.451Z,410
2018-06-06T12:21:54.543Z,405
2018-06-06T12:22:26.611Z,400
2018-06-06T12:22:58.703Z,395
2018-06-06T12:23:30.808Z,395
2018-06-06T12:25:22.436Z,395
2018-06-06T12:25:54.537Z,395
2018-06-06T12:26:26.608Z,395
2018-06-06T12:26:58.707Z,400
2018-06-06T12:27:30.788Z,405
2018-06-06T12:28:02.862Z,420
2018-06-06T12:29:54.442Z,430
2018-06-06T12:30:26.553Z,430
2018-06-06T12:30:58.663Z,435
2018-06-06T12:32:50.210Z,440
2018-06-06T12:33:22.319Z,440
2018-06-06T12:33:54.400Z,440
2018-06-06T12:34:26.512Z,440
2018-06-06T12:34:58.594Z,450
2018-06-06T12:35:30.698Z,450
2018-06-06T12:36:02.790Z,455
2018-06-06T12:36:34.899Z,440
2018-06-06T12:37:06.998Z,445
2018-06-06T12:37:39.078Z,465
2018-06-06T12:39:30.700Z,200
2018-06-06T12:40:03.504Z,175
2018-06-06T12:40:35.590Z,170
2018-06-06T12:41:07.699Z,205
2018-06-06T12:41:39.771Z,500
2018-06-06T12:42:11.861Z,515
2018-06-06T12:42:43.963Z,520
2018-06-06T12:43:16.058Z,525
2018-06-06T12:43:48.119Z,530
2018-06-06T12:44:20.214Z,545
2018-06-06T12:44:52.329Z,555
2018-06-06T12:45:24.439Z,565
2018-06-06T12:45:56.550Z,560
2018-06-06T12:46:29.724Z,565
2018-06-06T12:47:06.852Z,565
2018-06-06T12:47:41.995Z,570
2018-06-06T12:48:17.129Z,575
2018-06-06T12:48:49.249Z,575
2018-06-06T12:49:21.357Z,575
2018-06-06T12:49:53.438Z,580
2018-06-06T12:50:25.542Z,585
2018-06-06T12:50:57.643Z,590
2018-06-06T12:51:29.737Z,595
2018-06-06T12:52:01.853Z,600
2018-06-06T12:52:33.962Z,610
2018-06-06T12:53:06.096Z,610
2018-06-06T12:53:38.197Z,610
2018-06-06T12:54:10.273Z,430
2018-06-06T12:54:42.378Z,210
2018-06-06T12:55:14.473Z,210
2018-06-06T12:55:46.570Z,205
2018-06-06T12:56:18.662Z,210
2018-06-06T12:56:50.725Z,230
2018-06-06T12:57:22.796Z,670
2018-06-06T12:57:54.897Z,685
2018-06-06T12:58:27.044Z,710
2018-06-06T12:58:59.064Z,730
2018-06-06T12:59:31.172Z,740
2018-06-06T13:01:22.973Z,745
2018-06-06T13:01:55.119Z,750
2018-06-06T13:02:27.286Z,745
2018-06-06T13:04:18.887Z,760
2018-06-06T13:04:51.003Z,765
2018-06-06T13:05:23.105Z,760
2018-06-06T13:05:56.097Z,765
2018-06-06T13:06:28.186Z,765
2018-06-06T13:07:00.290Z,770
2018-06-06T13:07:32.395Z,775
2018-06-06T13:08:04.456Z,785
2018-06-06T13:08:36.571Z,785
2018-06-06T13:09:08.654Z,790
2018-06-06T13:11:00.385Z,805
2018-06-06T13:11:32.477Z,815
2018-06-06T13:12:04.558Z,820
2018-06-06T13:15:15.388Z,835
2018-06-06T13:15:47.472Z,835
2018-06-06T13:16:19.574Z,840
2018-06-06T13:18:11.331Z,835
2018-06-06T13:18:43.412Z,835
2018-06-06T13:19:15.524Z,845
2018-06-06T13:19:47.622Z,840
2018-06-06T13:20:19.687Z,835
2018-06-06T13:20:51.805Z,835
2018-06-06T13:21:23.900Z,835
2018-06-06T13:21:55.997Z,820
2018-06-06T13:22:28.097Z,845
2018-06-06T13:23:00.156Z,855
2018-06-06T13:24:51.895Z,825
2018-06-06T13:25:23.983Z,840
2018-06-06T13:25:56.085Z,845
2018-06-06T13:26:28.170Z,840
2018-06-06T13:27:00.269Z,845
2018-06-06T13:27:32.365Z,870
2018-06-06T13:28:04.451Z,870
2018-06-06T13:28:36.540Z,875
2018-06-06T13:29:08.620Z,875
2018-06-06T13:29:40.713Z,875
2018-06-06T13:30:12.802Z,885
2018-06-06T13:32:04.257Z,900
2018-06-06T13:32:36.357Z,905
2018-06-06T13:33:08.447Z,900
2018-06-06T13:33:40.539Z,900
2018-06-06T13:35:32.242Z,895
2018-06-06T13:36:04.356Z,905
2018-06-06T13:36:36.420Z,900
2018-06-06T13:37:08.511Z,900
2018-06-06T13:37:40.618Z,905
2018-06-06T13:38:12.704Z,900
2018-06-06T13:38:44.800Z,895
2018-06-06T13:39:16.907Z,905
2018-06-06T13:39:48.977Z,930
2018-06-06T13:40:21.065Z,940
2018-06-06T13:40:53.174Z,940
2018-06-06T13:41:25.274Z,940
2018-06-06T13:41:57.380Z,935
2018-06-06T13:42:29.487Z,935
2018-06-06T13:43:01.572Z,920
2018-06-06T13:43:33.674Z,915
2018-06-06T13:44:05.806Z,925
2018-06-06T13:44:37.860Z,920
2018-06-06T13:45:09.953Z,925
2018-06-06T13:45:42.011Z,920
2018-06-06T13:46:14.115Z,920
2018-06-06T13:46:46.212Z,930
2018-06-06T13:47:18.280Z,930
2018-06-06T13:47:50.386Z,925
2018-06-06T13:48:22.487Z,930
2018-06-06T13:48:54.583Z,935
2018-06-06T13:49:26.675Z,940
2018-06-06T13:49:58.785Z,935
2018-06-06T13:50:30.871Z,930
2018-06-06T13:51:02.973Z,925
2018-06-06T13:51:35.071Z,925
2018-06-06T13:52:07.194Z,925
2018-06-06T13:52:39.291Z,920
2018-06-06T13:53:11.389Z,925
2018-06-06T13:53:43.495Z,930
2018-06-06T13:54:15.588Z,930
2018-06-06T13:54:47.688Z,930
2018-06-06T13:55:19.756Z,925
2018-06-06T13:55:51.856Z,915
2018-06-06T13:56:23.956Z,920
2018-06-06T13:56:56.076Z,920
2018-06-06T13:57:28.166Z,910
2018-06-06T13:58:00.250Z,915
2018-06-06T13:58:32.330Z,915
2018-06-06T13:59:04.439Z,910
2018-06-06T13:59:36.569Z,905
2018-06-06T14:00:08.667Z,910
2018-06-06T14:00:40.770Z,920
2018-06-06T14:01:12.912Z,925
2018-06-06T14:01:44.964Z,925
2018-06-06T14:02:17.041Z,925
2018-06-06T14:02:49.127Z,910
2018-06-06T14:03:21.244Z,910
2018-06-06T14:03:53.346Z,890
2018-06-06T14:04:25.442Z,865
2018-06-06T14:04:57.533Z,825
2018-06-06T14:05:29.638Z,725
2018-06-06T14:06:01.748Z,870
2018-06-06T14:06:33.844Z,890
2018-06-06T14:07:05.964Z,895
2018-06-06T14:07:38.097Z,890
2018-06-06T14:08:10.165Z,895
2018-06-06T14:10:01.748Z,895
2018-06-06T14:10:33.853Z,905
2018-06-06T14:12:25.447Z,875
2018-06-06T14:12:57.551Z,870
2018-06-06T14:13:29.658Z,870
2018-06-06T14:14:01.767Z,870
2018-06-06T14:14:33.876Z,870
2018-06-06T14:15:05.984Z,865
2018-06-06T14:15:38.055Z,865
2018-06-06T14:16:10.141Z,860
2018-06-06T14:16:42.241Z,865
2018-06-06T14:17:14.330Z,860
2018-06-06T14:19:06.064Z,850
2018-06-06T14:19:38.167Z,845
2018-06-06T14:20:10.275Z,850
2018-06-06T14:20:42.376Z,840
2018-06-06T14:21:14.481Z,845
2018-06-06T14:21:46.579Z,850
2018-06-06T14:22:18.685Z,845
2018-06-06T14:22:50.775Z,850
2018-06-06T14:23:22.894Z,845
2018-06-06T14:23:55.006Z,850
2018-06-06T14:25:46.556Z,840
2018-06-06T14:27:38.287Z,815
2018-06-06T14:28:10.340Z,805
2018-06-06T14:28:42.445Z,790
2018-06-06T14:29:14.560Z,780
2018-06-06T14:29:46.641Z,780
2018-06-06T14:30:18.746Z,775
2018-06-06T14:33:29.869Z,790
2018-06-06T14:35:21.316Z,760
2018-06-06T14:35:53.411Z,755
2018-06-06T14:36:25.514Z,750
2018-06-06T14:36:57.613Z,745
2018-06-06T14:37:29.698Z,740
2018-06-06T14:38:01.794Z,730
2018-06-06T14:39:53.491Z,725
2018-06-06T14:40:25.593Z,730
2018-06-06T14:40:57.703Z,730
2018-06-06T14:41:29.825Z,740
2018-06-06T14:42:01.921Z,740
2018-06-06T14:42:34.023Z,740
2018-06-06T14:43:06.126Z,745
2018-06-06T14:43:38.170Z,745
2018-06-06T14:45:29.915Z,790
2018-06-06T14:47:21.303Z,1045
2018-06-06T14:49:12.830Z,1390
2018-06-06T14:49:44.929Z,1445
2018-06-06T14:50:17.017Z,1500
2018-06-06T14:50:49.117Z,1545
2018-06-06T14:51:21.226Z,1585
2018-06-06T14:51:53.304Z,1640
2018-06-06T14:53:44.903Z,1750
2018-06-06T14:54:16.965Z,1770
2018-06-06T14:54:49.051Z,1775
2018-06-06T14:55:21.142Z,1815
2018-06-06T14:55:53.216Z,1840
2018-06-06T14:56:25.308Z,1875
2018-06-06T14:58:16.997Z,1860
2018-06-06T14:58:49.104Z,1830
2018-06-06T14:59:21.188Z,1810
2018-06-06T15:01:12.912Z,1705
2018-06-06T15:01:45.012Z,1695
2018-06-06T15:02:17.125Z,1680
2018-06-06T15:02:49.221Z,1675
2018-06-06T15:03:21.320Z,1705
2018-06-06T15:03:53.432Z,1740
2018-06-06T15:05:44.928Z,1765
2018-06-06T15:06:17.022Z,1740
2018-06-06T15:06:49.100Z,1730
2018-06-06T15:07:21.180Z,1765
2018-06-06T15:07:53.289Z,1760
2018-06-06T15:08:25.357Z,1770
2018-06-06T15:08:57.444Z,1735
2018-06-06T15:09:29.540Z,1675
2018-06-06T15:11:20.860Z,1500
2018-06-06T15:11:52.956Z,1510
2018-06-06T15:12:25.049Z,1540
2018-06-06T15:12:57.151Z,1540
2018-06-06T15:13:29.249Z,1505
2018-06-06T15:14:01.343Z,1475
2018-06-06T15:14:33.439Z,1455
2018-06-06T15:16:24.928Z,1370
2018-06-06T15:16:57.035Z,1325
2018-06-06T15:17:29.116Z,1290
2018-06-06T15:18:01.216Z,1265
2018-06-06T15:18:33.315Z,1250
2018-06-06T15:19:05.415Z,1245
2018-06-06T15:20:57.111Z,1220
2018-06-06T15:21:29.206Z,1205
2018-06-06T15:22:01.305Z,1210
2018-06-06T15:22:33.386Z,1225
2018-06-06T15:23:05.510Z,1200
2018-06-06T15:23:37.613Z,1175
2018-06-06T15:24:09.710Z,1125
2018-06-06T15:26:01.141Z,425
2018-06-06T15:26:33.209Z,320
2018-06-06T15:27:05.317Z,300
2018-06-06T15:28:56.620Z,260
2018-06-06T15:29:28.691Z,255
2018-06-06T15:30:00.784Z,250
2018-06-06T15:33:12.125Z,210
2018-06-06T15:33:44.219Z,205
2018-06-06T15:34:16.324Z,205
2018-06-06T15:34:48.423Z,200
2018-06-06T15:36:40.034Z,190
2018-06-06T15:37:12.118Z,185
2018-06-06T15:37:44.216Z,185
2018-06-06T15:38:16.300Z,185
2018-06-06T15:38:48.397Z,180
2018-06-06T15:39:20.483Z,180
2018-06-06T15:39:52.571Z,180
2018-06-06T15:40:24.666Z,175
2018-06-06T15:40:56.752Z,175
2018-06-06T15:41:28.848Z,175
2018-06-06T15:43:20.450Z,170
2018-06-06T15:45:11.825Z,165
2018-06-06T15:45:43.925Z,165
2018-06-06T15:46:16.032Z,165
2018-06-06T15:46:48.121Z,160
2018-06-06T15:47:20.214Z,160
2018-06-06T15:47:52.315Z,160
2018-06-06T15:48:24.404Z,160
2018-06-06T15:48:56.493Z,160
2018-06-06T15:49:28.591Z,155
2018-06-06T15:50:00.697Z,155
2018-06-06T15:50:32.786Z,155
2018-06-06T15:51:04.891Z,155
2018-06-06T15:51:36.976Z,155
2018-06-06T15:52:09.075Z,155
2018-06-06T15:52:41.146Z,150
2018-06-06T15:53:13.235Z,150
2018-06-06T15:53:45.318Z,150
2018-06-06T15:54:17.405Z,150
2018-06-06T15:54:49.473Z,150
2018-06-06T15:55:21.593Z,150
2018-06-06T15:55:53.710Z,150
2018-06-06T15:56:25.757Z,145
2018-06-06T15:56:57.872Z,145
2018-06-06T15:57:29.971Z,145
2018-06-06T15:58:02.058Z,145
2018-06-06T15:58:34.143Z,145
2018-06-06T15:59:06.237Z,145
2018-06-06T15:59:38.332Z,140
2018-06-06T16:00:10.428Z,140
2018-06-06T16:00:42.512Z,140
2018-06-06T16:01:14.618Z,140
2018-06-06T16:01:46.709Z,140
2018-06-06T16:02:18.813Z,140
2018-06-06T16:04:10.153Z,135
2018-06-06T16:04:42.266Z,135
2018-06-06T16:05:14.362Z,135
2018-06-06T16:05:46.460Z,130
2018-06-06T16:06:18.557Z,130
2018-06-06T16:06:50.660Z,130
2018-06-06T16:07:22.759Z,130
2018-06-06T16:09:14.410Z,130
2018-06-06T16:09:46.504Z,125
2018-06-06T16:10:18.596Z,125
2018-06-06T16:10:50.715Z,125
2018-06-06T16:11:22.792Z,125
2018-06-06T16:11:54.904Z,125
2018-06-06T16:13:46.593Z,120
2018-06-06T16:14:18.652Z,120
2018-06-06T16:14:50.750Z,120
2018-06-06T16:15:22.822Z,120
2018-06-06T16:15:54.917Z,120
2018-06-06T16:17:46.569Z,120
2018-06-06T16:19:37.915Z,115
2018-06-06T16:20:10.020Z,115
2018-06-06T16:20:42.124Z,115
2018-06-06T16:21:14.206Z,115
2018-06-06T16:21:46.287Z,115
2018-06-06T16:22:18.388Z,115
2018-06-06T16:22:50.504Z,115
2018-06-06T16:23:22.611Z,110
2018-06-06T16:23:54.699Z,110
2018-06-06T16:24:26.776Z,110
2018-06-06T16:24:58.879Z,110
2018-06-06T16:25:30.972Z,110
2018-06-06T16:26:03.057Z,110
2018-06-06T16:26:35.165Z,110
2018-06-06T16:28:26.666Z,105
2018-06-06T16:28:58.763Z,105
2018-06-06T16:29:30.877Z,105
2018-06-06T16:30:02.986Z,105
2018-06-06T16:31:54.351Z,100
2018-06-06T16:32:26.441Z,100
2018-06-06T16:32:58.511Z,100
2018-06-06T16:33:30.652Z,100
2018-06-06T16:34:02.702Z,100
2018-06-06T16:34:34.822Z,100
2018-06-06T16:35:06.924Z,100
2018-06-06T16:35:39.028Z,100
2018-06-06T16:36:11.093Z,100
2018-06-06T16:36:43.194Z,95
2018-06-06T16:37:15.307Z,95
2018-06-06T16:37:47.412Z,95
2018-06-06T16:38:19.499Z,95
2018-06-06T16:38:51.602Z,95
2018-06-06T16:39:23.686Z,95
2018-06-06T16:39:55.786Z,95
2018-06-06T16:40:27.881Z,95
2018-06-06T16:40:59.973Z,95
2018-06-06T16:41:32.078Z,95
2018-06-06T16:42:04.174Z,90
2018-06-06T16:42:36.268Z,90
2018-06-06T16:43:08.357Z,90
2018-06-06T16:43:40.427Z,90
2018-06-06T16:44:12.511Z,90
2018-06-06T16:44:44.613Z,90
2018-06-06T16:45:16.712Z,90
2018-06-06T16:45:48.813Z,90
2018-06-06T16:46:20.919Z,90
2018-06-06T16:48:12.597Z,85
2018-06-06T16:50:04.324Z,85
2018-06-06T16:50:36.418Z,85
2018-06-06T16:51:08.506Z,85
2018-06-06T16:51:40.590Z,85
2018-06-06T16:52:12.696Z,85
2018-06-06T16:52:44.773Z,85
2018-06-06T16:53:16.857Z,85
2018-06-06T16:53:48.939Z,80
2018-06-06T16:54:21.038Z,80
2018-06-06T16:54:53.096Z,80
2018-06-06T16:55:25.201Z,80
2018-06-06T16:55:57.310Z,80
2018-06-06T16:56:29.412Z,80
2018-06-06T16:57:01.554Z,80
2018-06-06T16:57:33.595Z,80
2018-06-06T16:58:05.715Z,80
2018-06-06T16:58:37.808Z,80
2018-06-06T16:59:09.909Z,80
2018-06-06T16:59:41.994Z,80
2018-06-06T17:00:14.110Z,80
2018-06-06T17:02:05.540Z,75
2018-06-06T17:02:37.653Z,75
2018-06-06T17:03:09.705Z,75
2018-06-06T17:03:41.792Z,75
2018-06-06T17:04:13.860Z,75
2018-06-06T17:04:45.952Z,75
2018-06-06T17:06:38.097Z,75
2018-06-06T17:07:10.188Z,75
2018-06-06T17:10:21.207Z,70
2018-06-06T17:10:53.302Z,70
2018-06-06T17:11:25.409Z,70
2018-06-06T17:11:57.511Z,70
2018-06-06T17:12:29.590Z,70
2018-06-06T17:13:01.694Z,70
2018-06-06T17:13:33.727Z,70
2018-06-06T17:14:05.811Z,70
2018-06-06T17:14:37.900Z,70
2018-06-06T17:15:09.997Z,70
2018-06-06T17:15:42.105Z,70
2018-06-06T17:18:53.124Z,65
2018-06-06T17:19:25.226Z,65
2018-06-06T17:19:57.309Z,65
2018-06-06T17:20:29.397Z,65
2018-06-06T17:21:01.482Z,65
2018-06-06T17:21:33.562Z,65
2018-06-06T17:22:05.660Z,65
2018-06-06T17:22:37.747Z,65
2018-06-06T17:23:09.832Z,65
2018-06-06T17:23:41.916Z,65
2018-06-06T17:24:14.014Z,60
2018-06-06T17:24:46.065Z,60
2018-06-06T17:25:18.143Z,60
2018-06-06T17:25:50.254Z,60
2018-06-06T17:26:22.311Z,60
2018-06-06T17:26:54.393Z,60
2018-06-06T17:27:26.487Z,60
2018-06-06T17:27:58.586Z,60
2018-06-06T17:28:30.684Z,60
2018-06-06T17:29:02.777Z,60
2018-06-06T17:29:34.872Z,60
2018-06-06T17:30:06.976Z,60
2018-06-06T17:30:39.078Z,60
2018-06-06T17:31:11.170Z,60
2018-06-06T17:31:43.254Z,60
2018-06-06T17:32:15.328Z,60
2018-06-06T17:32:47.426Z,60
2018-06-06T17:33:19.527Z,60
2018-06-06T17:33:51.617Z,60
2018-06-06T17:34:23.703Z,55
2018-06-06T17:34:55.780Z,55
2018-06-06T17:35:27.849Z,55
2018-06-06T17:35:59.969Z,55
2018-06-06T17:37:51.552Z,55
2018-06-06T17:38:23.636Z,55
2018-06-06T17:38:55.724Z,55
2018-06-06T17:39:27.814Z,55
2018-06-06T17:39:59.910Z,55
2018-06-06T17:40:32.015Z,55
2018-06-06T17:41:04.073Z,55
2018-06-06T17:41:36.156Z,55
2018-06-06T17:42:08.287Z,55
2018-06-06T17:42:40.389Z,55
2018-06-06T17:44:31.989Z,55
2018-06-06T17:45:04.088Z,50
2018-06-06T17:45:36.186Z,50
2018-06-06T17:46:08.293Z,50
2018-06-06T17:46:40.375Z,50
2018-06-06T17:47:12.467Z,50
2018-06-06T17:47:44.568Z,50
2018-06-06T17:48:16.654Z,50
2018-06-06T17:48:48.754Z,50
2018-06-06T17:50:40.488Z,50
2018-06-06T17:51:12.582Z,50
2018-06-06T17:54:23.241Z,45
2018-06-06T17:54:55.348Z,45
2018-06-06T17:56:46.748Z,45
2018-06-06T17:57:18.852Z,45
2018-06-06T17:57:50.915Z,45
2018-06-06T17:58:22.986Z,45
2018-06-06T17:58:55.085Z,45
2018-06-06T17:59:27.168Z,45
2018-06-06T17:59:59.291Z,45
2018-06-06T18:01:50.635Z,45
2018-06-06T18:02:22.682Z,45
2018-06-06T18:02:54.788Z,45
2018-06-06T18:03:26.890Z,45
2018-06-06T18:03:58.989Z,40
2018-06-06T18:05:50.750Z,40
2018-06-06T18:06:22.838Z,40
2018-06-06T18:06:54.934Z,40
2018-06-06T18:08:46.246Z,40
2018-06-06T18:10:37.752Z,40
2018-06-06T18:11:09.857Z,40
2018-06-06T18:11:41.950Z,40
2018-06-06T18:12:14.037Z,40
2018-06-06T18:14:05.501Z,35
2018-06-06T18:14:37.613Z,35
2018-06-06T18:15:09.701Z,35
2018-06-06T18:15:41.771Z,35
2018-06-06T18:16:13.852Z,35
2018-06-06T18:16:45.936Z,35
2018-06-06T18:17:17.992Z,35
2018-06-06T18:17:50.085Z,35
2018-06-06T18:18:22.162Z,35
2018-06-06T18:18:54.260Z,35
2018-06-06T18:19:26.362Z,35
2018-06-06T18:19:58.461Z,35
2018-06-06T18:20:30.509Z,35
2018-06-06T18:21:02.583Z,35
2018-06-06T18:21:34.692Z,35
2018-06-06T18:22:06.796Z,35
2018-06-06T18:22:38.906Z,35
2018-06-06T18:23:11.005Z,35
2018-06-06T18:23:43.113Z,30
2018-06-06T18:24:15.192Z,30
2018-06-06T18:24:47.287Z,30
2018-06-06T18:25:19.397Z,30
2018-06-06T18:25:51.506Z,30
2018-06-06T18:26:23.594Z,30
2018-06-06T18:26:55.764Z,30
2018-06-06T18:27:27.807Z,30
2018-06-06T18:27:59.880Z,30
2018-06-06T18:28:31.987Z,30
2018-06-06T18:29:04.097Z,30
2018-06-06T18:29:36.204Z,30
2018-06-06T18:31:27.565Z,30
2018-06-06T18:31:59.670Z,30
2018-06-06T18:32:31.751Z,30
2018-06-06T18:33:03.849Z,30
2018-06-06T18:34:55.273Z,25
2018-06-06T18:35:27.379Z,25
2018-06-06T18:35:59.471Z,25
2018-06-06T18:36:31.563Z,25
2018-06-06T18:37:03.675Z,25
2018-06-06T18:38:55.008Z,25
2018-06-06T18:39:27.095Z,25
2018-06-06T18:39:59.183Z,25
2018-06-06T18:40:31.270Z,25
2018-06-06T18:41:03.360Z,25
2018-06-06T18:41:35.472Z,25
2018-06-06T18:42:07.551Z,25
2018-06-06T18:45:18.278Z,20
2018-06-06T18:45:50.382Z,20
2018-06-06T18:46:22.488Z,20
2018-06-06T18:46:54.579Z,20
2018-06-06T18:47:26.657Z,20
2018-06-06T18:47:58.741Z,20
2018-06-06T18:48:30.848Z,20
2018-06-06T18:49:02.945Z,20
2018-06-06T18:49:35.041Z,20
2018-06-06T18:50:07.118Z,20
2018-06-06T18:50:39.197Z,20
2018-06-06T18:51:11.274Z,20
2018-06-06T18:51:43.390Z,20
2018-06-06T18:52:15.499Z,20
2018-06-06T18:52:47.587Z,20
2018-06-06T18:54:38.953Z,20
2018-06-06T18:55:11.046Z,20
2018-06-06T18:55:43.140Z,15
2018-06-06T18:56:15.228Z,15
2018-06-06T18:56:47.349Z,15
2018-06-06T18:57:19.418Z,15
2018-06-06T18:59:10.973Z,15
2018-06-06T18:59:43.059Z,15
2018-06-06T19:00:15.198Z,15
2018-06-06T19:02:06.785Z,15
2018-06-06T19:02:38.855Z,15
2018-06-06T19:04:30.285Z,15
2018-06-06T19:05:02.386Z,15
2018-06-06T19:05:34.441Z,15
2018-06-06T19:07:25.788Z,10
2018-06-06T19:07:57.892Z,10
2018-06-06T19:08:29.997Z,10
2018-06-06T19:09:02.117Z,10
2018-06-06T19:09:34.202Z,10
2018-06-06T19:10:06.302Z,10
2018-06-06T19:10:38.413Z,10
2018-06-06T19:12:29.716Z,10
2018-06-06T19:13:01.900Z,10
2018-06-06T19:14:53.212Z,10
2018-06-06T19:15:25.287Z,10
2018-06-06T19:17:16.721Z,10
2018-06-06T19:17:48.795Z,10
2018-06-06T19:18:20.888Z,10
2018-06-06T19:18:52.987Z,5
2018-06-06T19:19:25.115Z,5
2018-06-06T19:19:57.156Z,5
2018-06-06T19:20:29.261Z,5
2018-06-06T19:21:01.364Z,5
2018-06-06T19:22:53.135Z,5
2018-06-06T19:24:44.614Z,5
2018-06-06T19:26:36.063Z,5
2018-06-06T19:27:08.153Z,5
2018-06-06T19:27:40.241Z,5
2018-06-06T19:28:12.344Z,5
2018-06-06T19:28:44.438Z,5
2018-06-06T19:29:16.518Z,5
2018-06-06T19:31:08.061Z,5
2018-06-06T19:31:40.148Z,5
2018-06-06T19:32:12.229Z,5
2018-06-06T19:32:44.320Z,5
2018-06-06T19:33:16.417Z,5
2018-06-06T19:33:48.516Z,5
2018-06-06T19:34:20.610Z,0
2018-06-06T19:34:52.660Z,0
2018-06-06T19:35:24.716Z,0
2018-06-06T19:35:56.817Z,0
2018-06-06T19:36:28.915Z,0
2018-06-06T19:37:01.005Z,0
2018-06-06T19:37:33.106Z,0
2018-06-06T19:38:05.367Z,0
2018-06-06T19:39:56.817Z,0
2018-06-06T19:40:28.913Z,0
2018-06-06T19:41:01.012Z,0
2018-06-06T19:41:33.105Z,0
2018-06-06T19:42:05.202Z,0
2018-06-06T19:42:37.290Z,0
2018-06-06T19:43:09.396Z,0
2018-06-06T19:43:41.460Z,0
2018-06-06T19:44:13.543Z,0
2018-06-06T19:44:45.704Z,0
2018-06-06T19:45:17.745Z,0
2018-06-06T19:45:49.850Z,0
2018-06-06T19:46:21.933Z,0
2018-06-06T19:46:54.024Z,0
2018-06-06T19:47:26.110Z,0
2018-06-06T19:47:58.202Z,0
2018-06-06T19:48:30.268Z,0
2018-06-06T19:49:02.370Z,0
2018-06-06T19:49:34.478Z,0
2018-06-06T19:50:06.587Z,0
2018-06-06T19:50:38.660Z,0
2018-06-06T19:51:10.763Z,0
2018-06-06T19:51:42.829Z,0
2018-06-06T19:52:14.895Z,0
2018-06-06T19:52:46.997Z,0
2018-06-06T19:53:19.096Z,0
2018-06-06T19:53:51.195Z,0
2018-06-06T19:54:23.300Z,0
2018-06-06T19:54:55.393Z,0
2018-06-06T19:55:27.455Z,0
2018-06-06T19:55:59.554Z,0
2018-06-06T19:56:31.650Z,0
2018-06-06T19:57:03.754Z,0
2018-06-06T19:58:55.491Z,0
2018-06-06T19:59:27.588Z,0
2018-06-06T19:59:59.645Z,0
2018-06-06T20:01:51.233Z,0
2018-06-06T20:02:23.310Z,0
2018-06-06T20:02:55.406Z,0
2018-06-06T20:03:27.509Z,0
2018-06-06T20:03:59.612Z,0
2018-06-06T20:04:31.716Z,0
2018-06-06T20:05:03.807Z,0
2018-06-06T20:06:55.258Z,0
2018-06-06T20:07:27.343Z,0
2018-06-06T20:07:59.432Z,0
2018-06-06T20:08:31.532Z,0
2018-06-06T20:09:03.633Z,0
2018-06-06T20:09:35.722Z,0
2018-06-06T20:10:07.802Z,0